sensor_id;sensor_type;location;lat;lon;timestamp;pressure;altitude;pressure_sealevel;temperature;humidity
70730;BME280;58315;53.336;55.932;2023-08-08T00:02:24;99011.28;;;23.72;51.59
70730;BME280;58315;53.336;55.932;2023-08-08T00:04:50;99012.91;;;23.73;51.64
70730;BME280;58315;53.336;55.932;2023-08-08T00:07:16;99020.53;;;23.76;51.80
70730;BME280;58315;53.336;55.932;2023-08-08T00:09:42;99010.00;;;23.74;52.00
70730;BME280;58315;53.336;55.932;2023-08-08T00:12:08;99011.88;;;23.74;51.97
70730;BME280;58315;53.336;55.932;2023-08-08T00:14:35;99016.56;;;23.78;51.84
70730;BME280;58315;53.336;55.932;2023-08-08T00:17:01;99016.19;;;23.75;51.69
70730;BME280;58315;53.336;55.932;2023-08-08T00:19:26;99015.38;;;23.74;51.28
70730;BME280;58315;53.336;55.932;2023-08-08T00:21:53;99006.94;;;23.71;50.69
70730;BME280;58315;53.336;55.932;2023-08-08T00:24:19;99015.94;;;23.65;50.89
70730;BME280;58315;53.336;55.932;2023-08-08T00:26:45;99013.97;;;23.60;51.05
70730;BME280;58315;53.336;55.932;2023-08-08T00:29:11;99014.69;;;23.55;51.06
70730;BME280;58315;53.336;55.932;2023-08-08T00:31:37;99011.31;;;23.48;51.13
70730;BME280;58315;53.336;55.932;2023-08-08T00:34:03;99019.38;;;23.48;51.21
70730;BME280;58315;53.336;55.932;2023-08-08T00:36:29;99032.88;;;23.48;51.60
70730;BME280;58315;53.336;55.932;2023-08-08T00:38:55;99038.84;;;23.39;52.20
70730;BME280;58315;53.336;55.932;2023-08-08T00:41:21;99033.44;;;23.39;52.31
70730;BME280;58315;53.336;55.932;2023-08-08T00:43:48;99033.56;;;23.44;52.07
70730;BME280;58315;53.336;55.932;2023-08-08T00:46:17;99031.69;;;23.44;52.34
70730;BME280;58315;53.336;55.932;2023-08-08T00:48:45;99035.00;;;23.70;52.12
70730;BME280;58315;53.336;55.932;2023-08-08T00:51:11;99033.56;;;23.44;52.75
70730;BME280;58315;53.336;55.932;2023-08-08T00:53:37;99028.16;;;23.44;52.09
70730;BME280;58315;53.336;55.932;2023-08-08T00:56:03;99036.84;;;23.46;51.54
70730;BME280;58315;53.336;55.932;2023-08-08T00:58:30;99037.09;;;23.44;51.16
70730;BME280;58315;53.336;55.932;2023-08-08T01:00:57;99032.88;;;23.37;51.01
70730;BME280;58315;53.336;55.932;2023-08-08T01:03:26;99032.75;;;23.31;51.05
70730;BME280;58315;53.336;55.932;2023-08-08T01:06:03;99031.69;;;23.44;50.95
70730;BME280;58315;53.336;55.932;2023-08-08T01:08:37;99024.44;;;23.33;51.42
70730;BME280;58315;53.336;55.932;2023-08-08T01:11:05;99032.19;;;23.29;51.56
70730;BME280;58315;53.336;55.932;2023-08-08T01:13:31;99029.94;;;23.26;52.11
70730;BME280;58315;53.336;55.932;2023-08-08T01:15:59;99017.63;;;23.30;52.09
70730;BME280;58315;53.336;55.932;2023-08-08T01:18:26;99027.84;;;23.40;52.23
70730;BME280;58315;53.336;55.932;2023-08-08T01:20:53;99021.72;;;23.45;52.09
70730;BME280;58315;53.336;55.932;2023-08-08T01:23:29;99020.78;;;23.63;51.95
70730;BME280;58315;53.336;55.932;2023-08-08T01:25:59;99027.22;;;23.62;51.44
70730;BME280;58315;53.336;55.932;2023-08-08T01:28:26;99019.63;;;23.58;51.47
70730;BME280;58315;53.336;55.932;2023-08-08T01:30:52;99015.25;;;23.57;51.33
70730;BME280;58315;53.336;55.932;2023-08-08T01:33:19;99020.66;;;23.57;51.37
70730;BME280;58315;53.336;55.932;2023-08-08T01:36:12;99011.41;;;23.77;51.22
70730;BME280;58315;53.336;55.932;2023-08-08T01:38:44;99016.31;;;23.80;50.96
70730;BME280;58315;53.336;55.932;2023-08-08T01:41:13;99013.41;;;23.70;51.34
70730;BME280;58315;53.336;55.932;2023-08-08T01:43:40;99011.63;;;23.75;51.12
70730;BME280;58315;53.336;55.932;2023-08-08T01:46:07;99013.59;;;23.80;51.23
70730;BME280;58315;53.336;55.932;2023-08-08T01:48:34;99012.09;;;23.84;50.97
70730;BME280;58315;53.336;55.932;2023-08-08T01:51:00;99006.78;;;23.89;50.98
70730;BME280;58315;53.336;55.932;2023-08-08T01:53:26;99012.88;;;23.96;50.72
70730;BME280;58315;53.336;55.932;2023-08-08T01:55:53;99015.31;;;23.98;50.94
70730;BME280;58315;53.336;55.932;2023-08-08T01:58:19;99021.53;;;23.98;50.68
70730;BME280;58315;53.336;55.932;2023-08-08T02:00:45;99014.88;;;23.89;50.99
70730;BME280;58315;53.336;55.932;2023-08-08T02:03:12;99019.22;;;23.90;50.78
70730;BME280;58315;53.336;55.932;2023-08-08T02:05:38;99011.72;;;23.92;50.88
70730;BME280;58315;53.336;55.932;2023-08-08T02:08:05;99007.81;;;24.00;51.07
70730;BME280;58315;53.336;55.932;2023-08-08T02:10:31;99010.00;;;24.15;50.78
70730;BME280;58315;53.336;55.932;2023-08-08T02:12:57;99011.81;;;24.26;50.60
70730;BME280;58315;53.336;55.932;2023-08-08T02:15:23;99009.22;;;24.31;50.40
70730;BME280;58315;53.336;55.932;2023-08-08T02:17:50;99006.50;;;24.43;50.64
70730;BME280;58315;53.336;55.932;2023-08-08T02:20:36;99008.00;;;24.50;50.22
70730;BME280;58315;53.336;55.932;2023-08-08T02:23:04;99010.50;;;24.57;50.35
70730;BME280;58315;53.336;55.932;2023-08-08T02:25:31;99000.78;;;24.56;50.22
70730;BME280;58315;53.336;55.932;2023-08-08T02:27:57;99011.44;;;24.63;50.27
70730;BME280;58315;53.336;55.932;2023-08-08T02:30:23;99009.31;;;24.65;49.84
70730;BME280;58315;53.336;55.932;2023-08-08T02:32:49;99004.41;;;24.62;50.06
70730;BME280;58315;53.336;55.932;2023-08-08T02:35:18;99003.91;;;24.65;50.47
70730;BME280;58315;53.336;55.932;2023-08-08T02:37:44;98995.84;;;24.53;50.38
70730;BME280;58315;53.336;55.932;2023-08-08T02:40:11;98996.84;;;24.47;50.77
70730;BME280;58315;53.336;55.932;2023-08-08T02:42:37;99000.94;;;24.49;50.80
70730;BME280;58315;53.336;55.932;2023-08-08T02:45:03;98999.22;;;24.60;51.15
70730;BME280;58315;53.336;55.932;2023-08-08T02:47:30;99002.09;;;24.70;51.22
70730;BME280;58315;53.336;55.932;2023-08-08T02:49:56;99009.13;;;24.71;51.25
70730;BME280;58315;53.336;55.932;2023-08-08T02:52:22;99006.53;;;24.76;51.25
70730;BME280;58315;53.336;55.932;2023-08-08T02:54:48;99000.66;;;24.80;51.46
70730;BME280;58315;53.336;55.932;2023-08-08T02:57:15;99013.00;;;24.92;51.28
70730;BME280;58315;53.336;55.932;2023-08-08T02:59:43;99006.47;;;25.05;51.14
70730;BME280;58315;53.336;55.932;2023-08-08T03:02:09;99006.47;;;25.05;51.10
70730;BME280;58315;53.336;55.932;2023-08-08T03:04:37;99007.38;;;25.11;51.25
70730;BME280;58315;53.336;55.932;2023-08-08T03:07:05;99001.00;;;25.17;50.89
70730;BME280;58315;53.336;55.932;2023-08-08T03:09:34;99002.28;;;25.31;50.29
70730;BME280;58315;53.336;55.932;2023-08-08T03:12:01;98993.38;;;25.53;50.34
70730;BME280;58315;53.336;55.932;2023-08-08T03:14:27;98989.75;;;25.64;50.08
70730;BME280;58315;53.336;55.932;2023-08-08T03:16:54;98992.81;;;25.72;49.66
70730;BME280;58315;53.336;55.932;2023-08-08T03:19:20;98987.09;;;25.69;49.92
70730;BME280;58315;53.336;55.932;2023-08-08T03:21:47;98983.47;;;25.80;50.37
70730;BME280;58315;53.336;55.932;2023-08-08T03:24:13;98979.16;;;26.55;49.51
70730;BME280;58315;53.336;55.932;2023-08-08T03:26:39;98983.91;;;27.07;47.72
70730;BME280;58315;53.336;55.932;2023-08-08T03:29:05;98985.28;;;28.25;47.02
70730;BME280;58315;53.336;55.932;2023-08-08T03:31:39;98986.22;;;29.93;44.65
70730;BME280;58315;53.336;55.932;2023-08-08T03:34:05;98979.53;;;31.56;42.26
70730;BME280;58315;53.336;55.932;2023-08-08T03:36:33;98984.69;;;32.95;39.69
70730;BME280;58315;53.336;55.932;2023-08-08T03:38:59;98991.56;;;33.67;36.88
70730;BME280;58315;53.336;55.932;2023-08-08T03:41:25;98987.69;;;33.95;36.32
70730;BME280;58315;53.336;55.932;2023-08-08T03:43:51;98985.66;;;34.73;36.16
70730;BME280;58315;53.336;55.932;2023-08-08T03:46:18;98985.25;;;35.42;35.03
70730;BME280;58315;53.336;55.932;2023-08-08T03:48:44;98976.41;;;36.03;32.55
70730;BME280;58315;53.336;55.932;2023-08-08T03:51:10;98978.03;;;36.04;33.59
70730;BME280;58315;53.336;55.932;2023-08-08T03:53:37;98975.63;;;36.37;32.25
70730;BME280;58315;53.336;55.932;2023-08-08T03:56:03;98977.84;;;36.78;31.68
70730;BME280;58315;53.336;55.932;2023-08-08T03:58:30;98981.31;;;37.22;31.65
70730;BME280;58315;53.336;55.932;2023-08-08T04:00:56;98979.78;;;37.80;30.97
70730;BME280;58315;53.336;55.932;2023-08-08T04:03:22;98979.63;;;38.27;29.91
70730;BME280;58315;53.336;55.932;2023-08-08T04:05:49;98974.25;;;38.31;29.45
70730;BME280;58315;53.336;55.932;2023-08-08T04:08:15;98974.31;;;38.64;29.72
70730;BME280;58315;53.336;55.932;2023-08-08T04:10:42;98973.31;;;39.02;27.59
70730;BME280;58315;53.336;55.932;2023-08-08T04:13:10;98975.44;;;39.29;28.25
70730;BME280;58315;53.336;55.932;2023-08-08T04:15:36;98969.00;;;39.87;27.57
70730;BME280;58315;53.336;55.932;2023-08-08T04:18:03;98970.00;;;39.94;27.74
70730;BME280;58315;53.336;55.932;2023-08-08T04:20:32;98966.59;;;40.25;27.35
70730;BME280;58315;53.336;55.932;2023-08-08T04:22:59;98978.38;;;40.10;26.54
70730;BME280;58315;53.336;55.932;2023-08-08T04:25:26;98969.31;;;39.97;27.55
70730;BME280;58315;53.336;55.932;2023-08-08T04:27:53;98967.00;;;40.40;26.26
70730;BME280;58315;53.336;55.932;2023-08-08T04:30:19;98968.53;;;40.65;25.72
70730;BME280;58315;53.336;55.932;2023-08-08T04:32:45;98962.13;;;40.21;26.31
70730;BME280;58315;53.336;55.932;2023-08-08T04:35:11;98970.28;;;40.30;26.10
70730;BME280;58315;53.336;55.932;2023-08-08T04:37:37;98979.59;;;39.85;26.91
70730;BME280;58315;53.336;55.932;2023-08-08T04:40:04;98983.81;;;40.19;26.28
70730;BME280;58315;53.336;55.932;2023-08-08T04:42:31;98978.97;;;40.03;26.65
70730;BME280;58315;53.336;55.932;2023-08-08T04:44:57;98983.25;;;40.01;26.73
70730;BME280;58315;53.336;55.932;2023-08-08T04:47:23;98972.31;;;40.05;26.71
70730;BME280;58315;53.336;55.932;2023-08-08T04:49:50;98987.13;;;40.24;25.96
70730;BME280;58315;53.336;55.932;2023-08-08T04:52:16;98976.31;;;40.60;25.78
70730;BME280;58315;53.336;55.932;2023-08-08T04:54:42;98975.38;;;40.84;25.95
70730;BME280;58315;53.336;55.932;2023-08-08T04:57:09;98975.16;;;41.20;25.51
70730;BME280;58315;53.336;55.932;2023-08-08T04:59:35;98966.03;;;41.20;25.21
70730;BME280;58315;53.336;55.932;2023-08-08T05:02:01;98959.88;;;41.27;24.72
70730;BME280;58315;53.336;55.932;2023-08-08T05:04:27;98970.19;;;41.58;25.17
70730;BME280;58315;53.336;55.932;2023-08-08T05:06:53;98962.88;;;41.85;24.88
70730;BME280;58315;53.336;55.932;2023-08-08T05:09:19;98958.91;;;41.51;24.84
70730;BME280;58315;53.336;55.932;2023-08-08T05:11:46;98963.78;;;42.08;26.42
70730;BME280;58315;53.336;55.932;2023-08-08T05:14:12;98959.13;;;42.71;25.03
70730;BME280;58315;53.336;55.932;2023-08-08T05:16:38;98961.16;;;42.93;23.70
70730;BME280;58315;53.336;55.932;2023-08-08T05:19:05;98959.72;;;42.60;23.57
70730;BME280;58315;53.336;55.932;2023-08-08T05:21:31;98962.06;;;42.58;24.69
70730;BME280;58315;53.336;55.932;2023-08-08T05:23:57;98950.78;;;41.93;23.61
70730;BME280;58315;53.336;55.932;2023-08-08T05:26:23;98957.06;;;41.74;23.98
70730;BME280;58315;53.336;55.932;2023-08-08T05:28:49;98948.72;;;41.55;23.88
70730;BME280;58315;53.336;55.932;2023-08-08T05:31:16;98950.66;;;41.38;24.20
70730;BME280;58315;53.336;55.932;2023-08-08T05:33:42;98933.94;;;41.66;25.87
70730;BME280;58315;53.336;55.932;2023-08-08T05:36:08;98947.31;;;42.54;24.26
70730;BME280;58315;53.336;55.932;2023-08-08T05:38:34;98943.59;;;42.47;23.91
70730;BME280;58315;53.336;55.932;2023-08-08T05:41:00;98939.31;;;42.53;23.23
70730;BME280;58315;53.336;55.932;2023-08-08T05:43:27;98944.44;;;41.41;24.59
70730;BME280;58315;53.336;55.932;2023-08-08T05:45:53;98934.00;;;41.70;25.04
70730;BME280;58315;53.336;55.932;2023-08-08T05:48:20;98935.03;;;42.17;22.83
70730;BME280;58315;53.336;55.932;2023-08-08T05:50:47;98924.00;;;40.86;23.58
70730;BME280;58315;53.336;55.932;2023-08-08T05:53:13;98922.44;;;40.29;24.34
70730;BME280;58315;53.336;55.932;2023-08-08T05:55:41;98928.78;;;40.30;24.68
70730;BME280;58315;53.336;55.932;2023-08-08T05:58:09;98925.09;;;40.82;24.23
70730;BME280;58315;53.336;55.932;2023-08-08T06:00:35;98929.72;;;40.49;24.29
70730;BME280;58315;53.336;55.932;2023-08-08T06:03:01;98922.63;;;39.96;24.75
70730;BME280;58315;53.336;55.932;2023-08-08T06:05:28;98925.09;;;39.12;25.15
70730;BME280;58315;53.336;55.932;2023-08-08T06:07:54;98932.09;;;38.97;25.70
70730;BME280;58315;53.336;55.932;2023-08-08T06:10:21;98919.84;;;38.73;25.80
70730;BME280;58315;53.336;55.932;2023-08-08T06:12:48;98924.28;;;38.32;25.66
70730;BME280;58315;53.336;55.932;2023-08-08T06:15:14;98910.09;;;38.01;25.88
70730;BME280;58315;53.336;55.932;2023-08-08T06:17:40;98909.47;;;37.95;26.10
70730;BME280;58315;53.336;55.932;2023-08-08T06:20:06;98910.16;;;38.79;26.83
70730;BME280;58315;53.336;55.932;2023-08-08T06:22:34;98903.78;;;39.00;26.34
70730;BME280;58315;53.336;55.932;2023-08-08T06:25:00;98905.41;;;39.01;25.61
70730;BME280;58315;53.336;55.932;2023-08-08T06:27:27;98907.78;;;38.45;26.16
70730;BME280;58315;53.336;55.932;2023-08-08T06:29:53;98906.75;;;38.28;25.74
70730;BME280;58315;53.336;55.932;2023-08-08T06:32:19;98905.16;;;37.64;26.88
70730;BME280;58315;53.336;55.932;2023-08-08T06:34:45;98913.88;;;36.99;27.52
70730;BME280;58315;53.336;55.932;2023-08-08T06:37:11;98892.94;;;35.98;27.95
70730;BME280;58315;53.336;55.932;2023-08-08T06:39:37;98885.81;;;35.63;29.33
70730;BME280;58315;53.336;55.932;2023-08-08T06:42:05;98898.84;;;35.48;27.97
70730;BME280;58315;53.336;55.932;2023-08-08T06:44:42;98894.75;;;34.97;28.34
70730;BME280;58315;53.336;55.932;2023-08-08T06:47:10;98896.53;;;34.03;29.59
70730;BME280;58315;53.336;55.932;2023-08-08T06:49:37;98885.69;;;33.48;30.25
70730;BME280;58315;53.336;55.932;2023-08-08T06:52:04;98885.59;;;33.40;30.34
70730;BME280;58315;53.336;55.932;2023-08-08T06:54:31;98889.81;;;33.46;30.39
70730;BME280;58315;53.336;55.932;2023-08-08T06:56:57;98900.38;;;33.52;30.47
70730;BME280;58315;53.336;55.932;2023-08-08T06:59:24;98889.56;;;33.47;31.25
70730;BME280;58315;53.336;55.932;2023-08-08T07:01:50;98889.56;;;33.47;30.81
70730;BME280;58315;53.336;55.932;2023-08-08T07:04:17;98894.22;;;33.60;31.90
70730;BME280;58315;53.336;55.932;2023-08-08T07:06:44;98893.25;;;33.79;31.09
70730;BME280;58315;53.336;55.932;2023-08-08T07:09:11;98887.00;;;33.65;30.74
70730;BME280;58315;53.336;55.932;2023-08-08T07:11:37;98884.00;;;33.75;30.58
70730;BME280;58315;53.336;55.932;2023-08-08T07:14:03;98882.34;;;33.51;30.78
70730;BME280;58315;53.336;55.932;2023-08-08T07:16:30;98886.50;;;33.35;30.95
70730;BME280;58315;53.336;55.932;2023-08-08T07:18:56;98892.78;;;33.22;31.05
70730;BME280;58315;53.336;55.932;2023-08-08T07:21:23;98881.41;;;33.42;31.18
70730;BME280;58315;53.336;55.932;2023-08-08T07:23:49;98870.78;;;33.54;32.62
70730;BME280;58315;53.336;55.932;2023-08-08T07:26:16;98880.72;;;33.36;30.93
70730;BME280;58315;53.336;55.932;2023-08-08T07:28:42;98883.25;;;33.05;30.68
70730;BME280;58315;53.336;55.932;2023-08-08T07:31:08;98879.59;;;32.96;31.67
70730;BME280;58315;53.336;55.932;2023-08-08T07:33:34;98879.59;;;33.24;31.05
70730;BME280;58315;53.336;55.932;2023-08-08T07:36:01;98882.84;;;33.12;30.60
70730;BME280;58315;53.336;55.932;2023-08-08T07:38:27;98882.16;;;33.06;31.25
70730;BME280;58315;53.336;55.932;2023-08-08T07:40:53;98873.03;;;33.11;31.51
70730;BME280;58315;53.336;55.932;2023-08-08T07:43:19;98876.63;;;32.93;31.27
70730;BME280;58315;53.336;55.932;2023-08-08T07:45:46;98868.06;;;32.53;31.25
70730;BME280;58315;53.336;55.932;2023-08-08T07:48:12;98876.44;;;32.42;31.20
70730;BME280;58315;53.336;55.932;2023-08-08T07:50:38;98881.22;;;32.32;31.07
70730;BME280;58315;53.336;55.932;2023-08-08T07:53:04;98862.06;;;31.99;30.89
70730;BME280;58315;53.336;55.932;2023-08-08T07:55:31;98875.91;;;31.89;30.67
70730;BME280;58315;53.336;55.932;2023-08-08T07:57:57;98873.00;;;31.99;30.56
70730;BME280;58315;53.336;55.932;2023-08-08T08:00:23;98859.94;;;32.29;31.29
70730;BME280;58315;53.336;55.932;2023-08-08T08:02:49;98869.63;;;32.73;30.82
70730;BME280;58315;53.336;55.932;2023-08-08T08:05:15;98858.09;;;32.89;30.80
70730;BME280;58315;53.336;55.932;2023-08-08T08:07:42;98867.47;;;33.02;30.69
70730;BME280;58315;53.336;55.932;2023-08-08T08:10:10;98855.47;;;32.98;31.01
70730;BME280;58315;53.336;55.932;2023-08-08T08:12:40;98866.69;;;32.83;30.92
70730;BME280;58315;53.336;55.932;2023-08-08T08:15:08;98871.50;;;32.26;30.80
70730;BME280;58315;53.336;55.932;2023-08-08T08:17:34;98861.97;;;32.23;30.85
70730;BME280;58315;53.336;55.932;2023-08-08T08:20:01;98861.22;;;32.36;30.32
70730;BME280;58315;53.336;55.932;2023-08-08T08:22:32;98846.81;;;32.63;31.04
70730;BME280;58315;53.336;55.932;2023-08-08T08:24:58;98868.69;;;32.63;30.21
70730;BME280;58315;53.336;55.932;2023-08-08T08:27:24;98856.44;;;32.75;30.47
70730;BME280;58315;53.336;55.932;2023-08-08T08:29:51;98852.97;;;32.55;29.74
70730;BME280;58315;53.336;55.932;2023-08-08T08:32:17;98844.38;;;32.62;29.29
70730;BME280;58315;53.336;55.932;2023-08-08T08:34:43;98845.72;;;32.78;29.92
70730;BME280;58315;53.336;55.932;2023-08-08T08:37:10;98842.28;;;32.86;29.58
70730;BME280;58315;53.336;55.932;2023-08-08T08:39:36;98842.69;;;32.94;29.94
70730;BME280;58315;53.336;55.932;2023-08-08T08:42:04;98844.53;;;33.12;30.23
70730;BME280;58315;53.336;55.932;2023-08-08T08:44:31;98853.41;;;32.62;29.67
70730;BME280;58315;53.336;55.932;2023-08-08T08:47:07;98850.09;;;32.47;30.66
70730;BME280;58315;53.336;55.932;2023-08-08T08:49:38;98852.81;;;32.33;29.90
70730;BME280;58315;53.336;55.932;2023-08-08T08:52:04;98846.44;;;32.37;29.52
70730;BME280;58315;53.336;55.932;2023-08-08T08:54:32;98840.44;;;32.35;29.58
70730;BME280;58315;53.336;55.932;2023-08-08T08:56:59;98844.63;;;32.47;29.38
70730;BME280;58315;53.336;55.932;2023-08-08T08:59:25;98832.19;;;32.54;28.47
70730;BME280;58315;53.336;55.932;2023-08-08T09:01:52;98841.72;;;32.24;28.52
70730;BME280;58315;53.336;55.932;2023-08-08T09:04:20;98842.84;;;32.56;30.61
70730;BME280;58315;53.336;55.932;2023-08-08T09:06:47;98838.59;;;32.63;29.96
70730;BME280;58315;53.336;55.932;2023-08-08T09:09:14;98835.09;;;32.77;29.47
70730;BME280;58315;53.336;55.932;2023-08-08T09:11:45;98820.56;;;32.76;28.70
70730;BME280;58315;53.336;55.932;2023-08-08T09:14:21;98835.75;;;32.69;28.45
70730;BME280;58315;53.336;55.932;2023-08-08T09:16:48;98828.88;;;32.57;30.25
70730;BME280;58315;53.336;55.932;2023-08-08T09:19:15;98821.59;;;32.67;28.64
70730;BME280;58315;53.336;55.932;2023-08-08T09:21:44;98824.56;;;32.37;28.28
70730;BME280;58315;53.336;55.932;2023-08-08T09:24:10;98832.13;;;32.27;28.98
70730;BME280;58315;53.336;55.932;2023-08-08T09:26:39;98829.81;;;32.34;28.76
70730;BME280;58315;53.336;55.932;2023-08-08T09:29:06;98819.16;;;32.32;28.40
70730;BME280;58315;53.336;55.932;2023-08-08T09:31:34;98827.84;;;32.53;28.83
70730;BME280;58315;53.336;55.932;2023-08-08T09:34:02;98826.97;;;32.39;28.46
70730;BME280;58315;53.336;55.932;2023-08-08T09:36:29;98828.97;;;32.20;28.57
70730;BME280;58315;53.336;55.932;2023-08-08T09:38:55;98823.16;;;32.07;28.81
70730;BME280;58315;53.336;55.932;2023-08-08T09:41:23;98830.16;;;32.13;28.61
70730;BME280;58315;53.336;55.932;2023-08-08T09:43:51;98821.03;;;32.04;28.45
70730;BME280;58315;53.336;55.932;2023-08-08T09:46:20;98822.47;;;32.15;29.23
70730;BME280;58315;53.336;55.932;2023-08-08T09:48:47;98823.31;;;31.97;28.12
70730;BME280;58315;53.336;55.932;2023-08-08T09:51:14;98827.56;;;31.84;28.56
70730;BME280;58315;53.336;55.932;2023-08-08T09:53:41;98826.75;;;31.84;28.06
70730;BME280;58315;53.336;55.932;2023-08-08T09:56:08;98815.56;;;31.85;28.46
70730;BME280;58315;53.336;55.932;2023-08-08T09:58:34;98813.25;;;31.74;26.56
70730;BME280;58315;53.336;55.932;2023-08-08T10:01:01;98817.41;;;31.52;26.68
70730;BME280;58315;53.336;55.932;2023-08-08T10:03:31;98814.06;;;31.55;27.19
70730;BME280;58315;53.336;55.932;2023-08-08T10:05:58;98810.47;;;31.60;27.36
70730;BME280;58315;53.336;55.932;2023-08-08T10:08:25;98812.75;;;31.72;27.23
70730;BME280;58315;53.336;55.932;2023-08-08T10:10:51;98812.00;;;31.85;25.91
70730;BME280;58315;53.336;55.932;2023-08-08T10:13:21;98809.06;;;32.00;26.26
70730;BME280;58315;53.336;55.932;2023-08-08T10:15:49;98815.28;;;31.87;26.05
70730;BME280;58315;53.336;55.932;2023-08-08T10:18:16;98801.97;;;31.99;27.07
70730;BME280;58315;53.336;55.932;2023-08-08T10:20:44;98806.25;;;32.05;26.51
70730;BME280;58315;53.336;55.932;2023-08-08T10:23:11;98816.56;;;32.08;26.02
70730;BME280;58315;53.336;55.932;2023-08-08T10:25:37;98812.28;;;32.02;26.45
70730;BME280;58315;53.336;55.932;2023-08-08T10:28:10;98806.25;;;32.05;25.91
70730;BME280;58315;53.336;55.932;2023-08-08T10:33:23;98812.34;;;32.16;25.11
70730;BME280;58315;53.336;55.932;2023-08-08T10:36:01;98814.31;;;31.97;25.82
70730;BME280;58315;53.336;55.932;2023-08-08T10:41:15;98819.81;;;32.10;26.53
70730;BME280;58315;53.336;55.932;2023-08-08T10:46:24;98815.34;;;32.33;27.20
70730;BME280;58315;53.336;55.932;2023-08-08T10:48:53;98819.06;;;32.24;26.17
70730;BME280;58315;53.336;55.932;2023-08-08T10:51:20;98813.59;;;32.24;27.01
70730;BME280;58315;53.336;55.932;2023-08-08T10:53:51;98825.25;;;32.29;26.66
70730;BME280;58315;53.336;55.932;2023-08-08T10:56:19;98821.88;;;32.18;26.41
70730;BME280;58315;53.336;55.932;2023-08-08T10:58:49;98825.03;;;32.26;27.09
70730;BME280;58315;53.336;55.932;2023-08-08T11:01:16;98827.34;;;32.18;27.72
70730;BME280;58315;53.336;55.932;2023-08-08T11:03:44;98832.75;;;32.05;26.97
70730;BME280;58315;53.336;55.932;2023-08-08T11:06:11;98825.47;;;32.00;26.40
70730;BME280;58315;53.336;55.932;2023-08-08T11:08:37;98826.47;;;32.04;26.51
70730;BME280;58315;53.336;55.932;2023-08-08T11:11:05;98817.16;;;32.05;26.72
70730;BME280;58315;53.336;55.932;2023-08-08T11:13:32;98822.91;;;31.85;27.24
70730;BME280;58315;53.336;55.932;2023-08-08T11:15:59;98818.00;;;31.68;26.99
70730;BME280;58315;53.336;55.932;2023-08-08T11:18:28;98829.56;;;31.41;27.01
70730;BME280;58315;53.336;55.932;2023-08-08T11:20:54;98830.97;;;31.38;26.66
70730;BME280;58315;53.336;55.932;2023-08-08T11:23:20;98833.78;;;31.52;26.87
70730;BME280;58315;53.336;55.932;2023-08-08T11:25:47;98829.19;;;31.66;27.04
70730;BME280;58315;53.336;55.932;2023-08-08T11:28:14;98827.72;;;31.55;27.09
70730;BME280;58315;53.336;55.932;2023-08-08T11:30:45;98835.53;;;31.81;26.59
70730;BME280;58315;53.336;55.932;2023-08-08T11:33:15;98832.91;;;31.76;27.17
70730;BME280;58315;53.336;55.932;2023-08-08T11:35:44;98832.38;;;31.74;26.91
70730;BME280;58315;53.336;55.932;2023-08-08T11:38:15;98826.06;;;31.59;26.26
70730;BME280;58315;53.336;55.932;2023-08-08T11:40:43;98819.34;;;31.70;26.68
70730;BME280;58315;53.336;55.932;2023-08-08T11:43:09;98823.09;;;31.75;26.58
70730;BME280;58315;53.336;55.932;2023-08-08T11:45:37;98831.72;;;31.82;26.82
70730;BME280;58315;53.336;55.932;2023-08-08T11:48:03;98828.25;;;31.76;26.18
70730;BME280;58315;53.336;55.932;2023-08-08T11:50:30;98828.91;;;31.68;26.30
70730;BME280;58315;53.336;55.932;2023-08-08T11:52:56;98833.03;;;31.65;27.16
70730;BME280;58315;53.336;55.932;2023-08-08T11:55:29;98838.28;;;31.81;26.15
70730;BME280;58315;53.336;55.932;2023-08-08T11:57:56;98831.66;;;31.68;27.16
70730;BME280;58315;53.336;55.932;2023-08-08T12:00:26;98836.06;;;31.83;26.18
70730;BME280;58315;53.336;55.932;2023-08-08T12:02:55;98837.91;;;31.68;25.03
70730;BME280;58315;53.336;55.932;2023-08-08T12:05:21;98832.75;;;31.67;25.79
70730;BME280;58315;53.336;55.932;2023-08-08T12:07:48;98832.00;;;31.80;26.15
70730;BME280;58315;53.336;55.932;2023-08-08T12:10:20;98840.44;;;32.03;25.95
70730;BME280;58315;53.336;55.932;2023-08-08T12:12:52;98841.03;;;32.00;25.83
70730;BME280;58315;53.336;55.932;2023-08-08T12:15:19;98842.06;;;32.04;26.67
70730;BME280;58315;53.336;55.932;2023-08-08T12:17:46;98838.28;;;31.81;26.54
70730;BME280;58315;53.336;55.932;2023-08-08T12:20:14;98849.19;;;31.81;26.66
70730;BME280;58315;53.336;55.932;2023-08-08T12:22:40;98838.88;;;31.78;26.13
70730;BME280;58315;53.336;55.932;2023-08-08T12:25:07;98851.44;;;31.79;25.94
70730;BME280;58315;53.336;55.932;2023-08-08T12:27:34;98845.97;;;31.79;26.87
70730;BME280;58315;53.336;55.932;2023-08-08T12:30:00;98860.44;;;31.60;26.40
70730;BME280;58315;53.336;55.932;2023-08-08T12:32:27;98865.44;;;31.53;25.99
70730;BME280;58315;53.336;55.932;2023-08-08T12:34:55;98858.06;;;31.54;25.94
70730;BME280;58315;53.336;55.932;2023-08-08T12:37:23;98868.84;;;31.64;26.15
70730;BME280;58315;53.336;55.932;2023-08-08T12:39:49;98862.28;;;31.65;26.30
70730;BME280;58315;53.336;55.932;2023-08-08T12:42:16;98866.38;;;31.62;27.50
70730;BME280;58315;53.336;55.932;2023-08-08T12:44:43;98859.75;;;31.50;26.71
70730;BME280;58315;53.336;55.932;2023-08-08T12:47:09;98865.13;;;31.55;27.54
70730;BME280;58315;53.336;55.932;2023-08-08T12:49:36;98865.00;;;31.46;27.29
70730;BME280;58315;53.336;55.932;2023-08-08T12:52:02;98866.03;;;31.50;29.19
70730;BME280;58315;53.336;55.932;2023-08-08T12:54:29;98857.47;;;31.76;29.17
70730;BME280;58315;53.336;55.932;2023-08-08T12:56:55;98859.78;;;31.87;29.38
70730;BME280;58315;53.336;55.932;2023-08-08T12:59:21;98859.53;;;31.84;29.51